sensor_id;sensor_type;location;lat;lon;timestamp;pressure;altitude;pressure_sealevel;temperature;humidity
57606;BME280;43430;48.204;11.556;2023-07-13T00:00:11;96248.38;;;17.54;100.00
57606;BME280;43430;48.204;11.556;2023-07-13T00:02:37;96239.31;;;17.55;100.00
57606;BME280;43430;48.204;11.556;2023-07-13T00:05:02;96227.59;;;17.56;100.00
57606;BME280;43430;48.204;11.556;2023-07-13T00:07:28;96222.25;;;17.62;100.00
57606;BME280;43430;48.204;11.556;2023-07-13T00:09:53;96220.66;;;17.61;100.00
57606;BME280;43430;48.204;11.556;2023-07-13T00:12:34;96227.59;;;17.62;100.00
57606;BME280;43430;48.204;11.556;2023-07-13T00:15:04;96218.50;;;17.58;100.00
57606;BME280;43430;48.204;11.556;2023-07-13T00:17:30;96211.03;;;17.54;100.00
57606;BME280;43430;48.204;11.556;2023-07-13T00:19:56;96211.59;;;17.56;100.00
57606;BME280;43430;48.204;11.556;2023-07-13T00:22:23;96212.66;;;17.55;100.00
57606;BME280;43430;48.204;11.556;2023-07-13T00:24:51;96221.16;;;17.52;100.00
57606;BME280;43430;48.204;11.556;2023-07-13T00:27:17;96224.88;;;17.51;100.00
57606;BME280;43430;48.204;11.556;2023-07-13T00:29:43;96211.81;;;17.50;100.00
57606;BME280;43430;48.204;11.556;2023-07-13T00:32:08;96212.63;;;17.50;100.00
57606;BME280;43430;48.204;11.556;2023-07-13T00:34:35;96219.25;;;17.48;100.00
57606;BME280;43430;48.204;11.556;2023-07-13T00:37:00;96222.22;;;17.51;100.00
57606;BME280;43430;48.204;11.556;2023-07-13T00:39:27;96232.88;;;17.51;100.00
57606;BME280;43430;48.204;11.556;2023-07-13T00:41:52;96229.69;;;17.49;100.00
57606;BME280;43430;48.204;11.556;2023-07-13T00:44:19;96224.31;;;17.44;100.00
57606;BME280;43430;48.204;11.556;2023-07-13T00:46:45;96224.59;;;17.43;100.00
57606;BME280;43430;48.204;11.556;2023-07-13T00:49:13;96229.13;;;17.47;100.00
57606;BME280;43430;48.204;11.556;2023-07-13T00:51:46;96226.47;;;17.47;100.00
57606;BME280;43430;48.204;11.556;2023-07-13T00:54:15;96228.09;;;17.48;100.00
57606;BME280;43430;48.204;11.556;2023-07-13T00:56:45;96219.03;;;17.49;100.00
57606;BME280;43430;48.204;11.556;2023-07-13T00:59:12;96230.22;;;17.51;100.00
57606;BME280;43430;48.204;11.556;2023-07-13T01:01:38;96237.19;;;17.58;100.00
57606;BME280;43430;48.204;11.556;2023-07-13T01:04:04;96233.94;;;17.50;100.00
57606;BME280;43430;48.204;11.556;2023-07-13T01:06:36;96220.63;;;17.50;100.00
57606;BME280;43430;48.204;11.556;2023-07-13T01:09:02;96213.97;;;17.53;100.00
57606;BME280;43430;48.204;11.556;2023-07-13T01:11:28;96208.38;;;17.54;100.00
57606;BME280;43430;48.204;11.556;2023-07-13T01:13:53;96204.38;;;17.52;100.00
57606;BME280;43430;48.204;11.556;2023-07-13T01:16:26;96205.13;;;17.47;100.00
57606;BME280;43430;48.204;11.556;2023-07-13T01:18:52;96195.81;;;17.45;100.00
57606;BME280;43430;48.204;11.556;2023-07-13T01:21:17;96196.38;;;17.52;100.00
57606;BME280;43430;48.204;11.556;2023-07-13T01:23:44;96183.81;;;17.47;100.00
57606;BME280;43430;48.204;11.556;2023-07-13T01:26:10;96186.47;;;17.42;100.00
57606;BME280;43430;48.204;11.556;2023-07-13T01:28:36;96189.66;;;17.44;100.00
57606;BME280;43430;48.204;11.556;2023-07-13T01:31:03;96193.41;;;17.43;100.00
57606;BME280;43430;48.204;11.556;2023-07-13T01:33:28;96202.19;;;17.44;100.00
57606;BME280;43430;48.204;11.556;2023-07-13T01:35:54;96193.84;;;17.30;100.00
57606;BME280;43430;48.204;11.556;2023-07-13T01:38:21;96205.03;;;17.27;100.00
57606;BME280;43430;48.204;11.556;2023-07-13T01:40:47;96203.22;;;17.32;100.00
57606;BME280;43430;48.204;11.556;2023-07-13T01:43:13;96207.69;;;17.22;100.00
57606;BME280;43430;48.204;11.556;2023-07-13T01:45:38;96207.69;;;17.22;100.00
57606;BME280;43430;48.204;11.556;2023-07-13T01:48:04;96200.44;;;17.12;100.00
57606;BME280;43430;48.204;11.556;2023-07-13T01:50:32;96206.78;;;17.06;100.00
57606;BME280;43430;48.204;11.556;2023-07-13T01:52:57;96207.47;;;16.91;100.00
57606;BME280;43430;48.204;11.556;2023-07-13T01:55:23;96205.53;;;16.76;100.00
57606;BME280;43430;48.204;11.556;2023-07-13T01:57:48;96201.22;;;16.75;100.00
57606;BME280;43430;48.204;11.556;2023-07-13T02:00:14;96201.28;;;16.80;100.00
57606;BME280;43430;48.204;11.556;2023-07-13T02:02:39;96209.81;;;16.82;100.00
57606;BME280;43430;48.204;11.556;2023-07-13T02:05:05;96208.25;;;16.87;100.00
57606;BME280;43430;48.204;11.556;2023-07-13T02:07:31;96204.25;;;16.84;100.00
57606;BME280;43430;48.204;11.556;2023-07-13T02:09:56;96206.94;;;16.89;100.00
57606;BME280;43430;48.204;11.556;2023-07-13T02:12:22;96203.50;;;16.94;100.00
57606;BME280;43430;48.204;11.556;2023-07-13T02:14:47;96208.56;;;16.90;100.00
57606;BME280;43430;48.204;11.556;2023-07-13T02:17:13;96209.09;;;16.92;100.00
57606;BME280;43430;48.204;11.556;2023-07-13T02:19:38;96212.59;;;16.98;100.00
57606;BME280;43430;48.204;11.556;2023-07-13T02:22:04;96209.66;;;16.99;100.00
57606;BME280;43430;48.204;11.556;2023-07-13T02:24:29;96213.69;;;17.02;100.00
57606;BME280;43430;48.204;11.556;2023-07-13T02:26:55;96207.06;;;17.09;100.00
57606;BME280;43430;48.204;11.556;2023-07-13T02:29:20;96214.59;;;17.18;100.00
57606;BME280;43430;48.204;11.556;2023-07-13T02:31:45;96221.00;;;17.22;100.00
57606;BME280;43430;48.204;11.556;2023-07-13T02:34:11;96229.81;;;17.22;100.00
57606;BME280;43430;48.204;11.556;2023-07-13T02:36:36;96228.50;;;17.25;100.00
57606;BME280;43430;48.204;11.556;2023-07-13T02:39:04;96239.63;;;17.17;100.00
57606;BME280;43430;48.204;11.556;2023-07-13T02:41:30;96247.59;;;17.17;100.00
57606;BME280;43430;48.204;11.556;2023-07-13T02:44:01;96253.50;;;17.19;100.00
57606;BME280;43430;48.204;11.556;2023-07-13T02:46:30;96260.41;;;17.20;100.00
57606;BME280;43430;48.204;11.556;2023-07-13T02:48:56;96254.50;;;17.13;100.00
57606;BME280;43430;48.204;11.556;2023-07-13T02:51:21;96266.25;;;17.12;100.00
57606;BME280;43430;48.204;11.556;2023-07-13T02:53:46;96263.78;;;17.05;100.00
57606;BME280;43430;48.204;11.556;2023-07-13T02:56:12;96261.22;;;16.83;100.00
57606;BME280;43430;48.204;11.556;2023-07-13T02:58:37;96260.16;;;16.84;100.00
57606;BME280;43430;48.204;11.556;2023-07-13T03:01:07;96251.88;;;16.80;100.00
57606;BME280;43430;48.204;11.556;2023-07-13T03:03:33;96253.94;;;16.73;100.00
57606;BME280;43430;48.204;11.556;2023-07-13T03:06:00;96252.31;;;16.72;100.00
57606;BME280;43430;48.204;11.556;2023-07-13T03:08:27;96264.91;;;16.77;100.00
57606;BME280;43430;48.204;11.556;2023-07-13T03:11:20;96251.81;;;16.75;100.00
57606;BME280;43430;48.204;11.556;2023-07-13T03:13:45;96260.69;;;16.81;100.00
57606;BME280;43430;48.204;11.556;2023-07-13T03:16:11;96271.59;;;16.79;100.00
57606;BME280;43430;48.204;11.556;2023-07-13T03:18:37;96272.56;;;16.73;100.00
57606;BME280;43430;48.204;11.556;2023-07-13T03:21:03;96273.56;;;16.67;100.00
57606;BME280;43430;48.204;11.556;2023-07-13T03:23:29;96271.63;;;16.57;100.00
57606;BME280;43430;48.204;11.556;2023-07-13T03:26:13;96278.03;;;16.61;100.00
57606;BME280;43430;48.204;11.556;2023-07-13T03:28:39;96274.78;;;16.54;100.00
57606;BME280;43430;48.204;11.556;2023-07-13T03:31:13;96255.66;;;16.57;100.00
57606;BME280;43430;48.204;11.556;2023-07-13T03:33:39;96265.28;;;16.64;100.00
57606;BME280;43430;48.204;11.556;2023-07-13T03:36:06;96268.72;;;16.59;100.00
57606;BME280;43430;48.204;11.556;2023-07-13T03:38:33;96270.56;;;16.58;100.00
57606;BME280;43430;48.204;11.556;2023-07-13T03:41:01;96268.72;;;16.59;100.00
57606;BME280;43430;48.204;11.556;2023-07-13T03:43:27;96284.44;;;16.60;100.00
57606;BME280;43430;48.204;11.556;2023-07-13T03:45:52;96285.19;;;16.56;100.00
57606;BME280;43430;48.204;11.556;2023-07-13T03:48:18;96283.84;;;16.58;100.00
57606;BME280;43430;48.204;11.556;2023-07-13T03:50:43;96278.53;;;16.58;100.00
57606;BME280;43430;48.204;11.556;2023-07-13T03:53:09;96274.53;;;16.56;100.00
57606;BME280;43430;48.204;11.556;2023-07-13T03:55:34;96276.94;;;16.57;100.00
57606;BME280;43430;48.204;11.556;2023-07-13T03:58:23;96279.38;;;16.59;100.00
57606;BME280;43430;48.204;11.556;2023-07-13T04:00:48;96272.13;;;16.54;100.00
57606;BME280;43430;48.204;11.556;2023-07-13T04:03:15;96278.25;;;16.55;100.00
57606;BME280;43430;48.204;11.556;2023-07-13T04:05:41;96285.41;;;16.49;100.00
57606;BME280;43430;48.204;11.556;2023-07-13T04:08:07;96285.09;;;16.46;100.00
57606;BME280;43430;48.204;11.556;2023-07-13T04:10:32;96291.44;;;16.45;100.00
57606;BME280;43430;48.204;11.556;2023-07-13T04:12:57;96296.28;;;16.48;100.00
57606;BME280;43430;48.204;11.556;2023-07-13T04:15:23;96296.53;;;16.46;100.00
57606;BME280;43430;48.204;11.556;2023-07-13T04:17:48;96305.38;;;16.52;100.00
57606;BME280;43430;48.204;11.556;2023-07-13T04:20:13;96300.25;;;16.45;100.00
57606;BME280;43430;48.204;11.556;2023-07-13T04:22:39;96309.47;;;16.37;100.00
57606;BME280;43430;48.204;11.556;2023-07-13T04:25:04;96310.00;;;16.34;100.00
57606;BME280;43430;48.204;11.556;2023-07-13T04:27:31;96315.56;;;16.33;100.00
57606;BME280;43430;48.204;11.556;2023-07-13T04:29:56;96309.47;;;16.37;100.00
57606;BME280;43430;48.204;11.556;2023-07-13T04:32:21;96320.56;;;16.29;100.00
57606;BME280;43430;48.204;11.556;2023-07-13T04:34:47;96311.22;;;16.27;100.00
57606;BME280;43430;48.204;11.556;2023-07-13T04:37:12;96330.59;;;16.22;100.00
57606;BME280;43430;48.204;11.556;2023-07-13T04:39:37;96324.53;;;16.27;100.00
57606;BME280;43430;48.204;11.556;2023-07-13T04:42:03;96323.81;;;16.31;100.00
57606;BME280;43430;48.204;11.556;2023-07-13T04:44:29;96328.38;;;16.36;100.00
57606;BME280;43430;48.204;11.556;2023-07-13T04:46:54;96322.47;;;16.34;100.00
57606;BME280;43430;48.204;11.556;2023-07-13T04:49:20;96327.06;;;16.38;100.00
57606;BME280;43430;48.204;11.556;2023-07-13T04:51:45;96327.31;;;16.37;100.00
57606;BME280;43430;48.204;11.556;2023-07-13T04:54:10;96336.91;;;16.38;100.00
57606;BME280;43430;48.204;11.556;2023-07-13T04:56:36;96346.72;;;16.37;100.00
57606;BME280;43430;48.204;11.556;2023-07-13T04:59:01;96350.16;;;16.33;100.00
57606;BME280;43430;48.204;11.556;2023-07-13T05:01:27;96346.69;;;16.32;100.00
57606;BME280;43430;48.204;11.556;2023-07-13T05:03:52;96343.22;;;16.32;100.00
57606;BME280;43430;48.204;11.556;2023-07-13T05:06:17;96342.78;;;16.40;100.00
57606;BME280;43430;48.204;11.556;2023-07-13T05:08:43;96348.66;;;16.42;100.00
57606;BME280;43430;48.204;11.556;2023-07-13T05:11:08;96354.53;;;16.44;100.00
57606;BME280;43430;48.204;11.556;2023-07-13T05:13:33;96366.22;;;16.43;100.00
57606;BME280;43430;48.204;11.556;2023-07-13T05:16:01;96358.94;;;16.55;100.00
57606;BME280;43430;48.204;11.556;2023-07-13T05:18:28;96362.63;;;16.54;100.00
57606;BME280;43430;48.204;11.556;2023-07-13T05:21:07;96361.59;;;16.55;100.00
57606;BME280;43430;48.204;11.556;2023-07-13T05:23:34;96358.66;;;16.57;100.00
57606;BME280;43430;48.204;11.556;2023-07-13T05:26:00;96356.81;;;16.57;100.00
57606;BME280;43430;48.204;11.556;2023-07-13T05:28:26;96358.38;;;16.53;100.00
57606;BME280;43430;48.204;11.556;2023-07-13T05:30:52;96353.03;;;16.53;100.00
57606;BME280;43430;48.204;11.556;2023-07-13T05:33:19;96356.47;;;16.49;100.00
57606;BME280;43430;48.204;11.556;2023-07-13T05:35:44;96362.03;;;16.47;100.00
57606;BME280;43430;48.204;11.556;2023-07-13T05:38:10;96352.78;;;16.55;100.00
57606;BME280;43430;48.204;11.556;2023-07-13T05:40:35;96359.66;;;16.51;100.00
57606;BME280;43430;48.204;11.556;2023-07-13T05:43:00;96361.91;;;16.59;100.00
57606;BME280;43430;48.204;11.556;2023-07-13T05:45:26;96363.50;;;16.60;100.00
57606;BME280;43430;48.204;11.556;2023-07-13T05:47:51;96356.13;;;16.67;100.00
57606;BME280;43430;48.204;11.556;2023-07-13T05:50:17;96362.13;;;16.79;100.00
57606;BME280;43430;48.204;11.556;2023-07-13T05:52:42;96360.97;;;16.97;100.00
57606;BME280;43430;48.204;11.556;2023-07-13T05:55:08;96354.94;;;17.07;100.00
57606;BME280;43430;48.204;11.556;2023-07-13T05:57:33;96367.88;;;17.25;100.00
57606;BME280;43430;48.204;11.556;2023-07-13T05:59:59;96368.19;;;17.34;100.00
57606;BME280;43430;48.204;11.556;2023-07-13T06:02:24;96369.25;;;17.33;100.00
57606;BME280;43430;48.204;11.556;2023-07-13T06:04:50;96375.97;;;17.41;100.00
57606;BME280;43430;48.204;11.556;2023-07-13T06:07:16;96361.34;;;17.43;100.00
57606;BME280;43430;48.204;11.556;2023-07-13T06:09:41;96367.59;;;17.59;100.00
57606;BME280;43430;48.204;11.556;2023-07-13T06:12:07;96361.69;;;17.57;100.00
57606;BME280;43430;48.204;11.556;2023-07-13T06:14:32;96367.31;;;17.61;100.00
57606;BME280;43430;48.204;11.556;2023-07-13T06:16:57;96366.03;;;17.63;100.00
57606;BME280;43430;48.204;11.556;2023-07-13T06:19:23;96367.47;;;17.76;100.00
57606;BME280;43430;48.204;11.556;2023-07-13T06:21:48;96371.28;;;17.90;100.00
57606;BME280;43430;48.204;11.556;2023-07-13T06:24:13;96359.38;;;18.13;100.00
57606;BME280;43430;48.204;11.556;2023-07-13T06:26:39;96350.34;;;18.14;100.00
57606;BME280;43430;48.204;11.556;2023-07-13T06:29:04;96348.22;;;18.21;100.00
57606;BME280;43430;48.204;11.556;2023-07-13T06:31:30;96348.78;;;18.34;100.00
57606;BME280;43430;48.204;11.556;2023-07-13T06:33:56;96338.91;;;18.29;100.00
57606;BME280;43430;48.204;11.556;2023-07-13T06:36:21;96332.00;;;18.38;100.00
57606;BME280;43430;48.204;11.556;2023-07-13T06:38:46;96324.72;;;18.23;100.00
57606;BME280;43430;48.204;11.556;2023-07-13T06:41:12;96315.34;;;18.11;100.00
57606;BME280;43430;48.204;11.556;2023-07-13T06:43:37;96317.19;;;18.05;100.00
57606;BME280;43430;48.204;11.556;2023-07-13T06:46:03;96316.94;;;18.12;100.00
57606;BME280;43430;48.204;11.556;2023-07-13T06:48:28;96310.72;;;17.96;100.00
57606;BME280;43430;48.204;11.556;2023-07-13T06:50:54;96303.94;;;17.73;100.00
57606;BME280;43430;48.204;11.556;2023-07-13T06:53:20;96303.03;;;17.57;100.00
57606;BME280;43430;48.204;11.556;2023-07-13T06:55:46;96306.03;;;17.66;100.00
57606;BME280;43430;48.204;11.556;2023-07-13T06:58:12;96313.25;;;17.65;100.00
57606;BME280;43430;48.204;11.556;2023-07-13T07:00:37;96315.09;;;17.65;100.00
57606;BME280;43430;48.204;11.556;2023-07-13T07:03:05;96310.88;;;17.74;100.00
57606;BME280;43430;48.204;11.556;2023-07-13T07:05:30;96310.69;;;17.81;100.00
57606;BME280;43430;48.204;11.556;2023-07-13T07:07:56;96313.06;;;17.82;100.00
57606;BME280;43430;48.204;11.556;2023-07-13T07:10:21;96305.34;;;17.86;100.00
57606;BME280;43430;48.204;11.556;2023-07-13T07:12:47;96294.94;;;17.84;100.00
57606;BME280;43430;48.204;11.556;2023-07-13T07:15:13;96280.25;;;17.76;100.00
57606;BME280;43430;48.204;11.556;2023-07-13T07:17:38;96294.16;;;17.89;100.00
57606;BME280;43430;48.204;11.556;2023-07-13T07:20:04;96288.34;;;17.97;100.00
57606;BME280;43430;48.204;11.556;2023-07-13T07:22:30;96272.63;;;18.00;100.00
57606;BME280;43430;48.204;11.556;2023-07-13T07:24:57;96255.25;;;18.03;100.00
57606;BME280;43430;48.204;11.556;2023-07-13T07:27:23;96252.56;;;17.88;100.00
57606;BME280;43430;48.204;11.556;2023-07-13T07:29:48;96254.69;;;17.91;100.00
57606;BME280;43430;48.204;11.556;2023-07-13T07:32:14;96277.34;;;17.83;100.00
57606;BME280;43430;48.204;11.556;2023-07-13T07:34:39;96284.88;;;17.96;100.00
57606;BME280;43430;48.204;11.556;2023-07-13T07:37:04;96262.47;;;17.97;100.00
57606;BME280;43430;48.204;11.556;2023-07-13T07:39:30;96265.94;;;18.03;100.00
57606;BME280;43430;48.204;11.556;2023-07-13T07:41:56;96276.69;;;18.23;100.00
57606;BME280;43430;48.204;11.556;2023-07-13T07:44:22;96289.50;;;18.26;100.00
57606;BME280;43430;48.204;11.556;2023-07-13T07:46:47;96281.84;;;18.56;100.00
57606;BME280;43430;48.204;11.556;2023-07-13T07:49:12;96267.91;;;18.28;100.00
57606;BME280;43430;48.204;11.556;2023-07-13T07:51:38;96271.63;;;18.27;100.00
57606;BME280;43430;48.204;11.556;2023-07-13T07:54:04;96280.44;;;18.33;100.00
57606;BME280;43430;48.204;11.556;2023-07-13T07:56:30;96276.97;;;18.37;100.00
57606;BME280;43430;48.204;11.556;2023-07-13T07:58:55;96253.78;;;18.43;100.00
57606;BME280;43430;48.204;11.556;2023-07-13T08:01:21;96259.91;;;18.38;100.00
57606;BME280;43430;48.204;11.556;2023-07-13T08:03:47;96272.69;;;18.21;100.00
57606;BME280;43430;48.204;11.556;2023-07-13T08:06:12;96275.31;;;18.16;100.00
57606;BME280;43430;48.204;11.556;2023-07-13T08:08:38;96263.50;;;17.91;100.00
57606;BME280;43430;48.204;11.556;2023-07-13T08:11:05;96279.97;;;17.78;100.00
57606;BME280;43430;48.204;11.556;2023-07-13T08:13:32;96294.44;;;17.87;100.00
57606;BME280;43430;48.204;11.556;2023-07-13T08:15:58;96283.31;;;17.58;100.00
57606;BME280;43430;48.204;11.556;2023-07-13T08:18:24;96295.91;;;17.68;100.00
57606;BME280;43430;48.204;11.556;2023-07-13T08:20:49;96288.69;;;17.63;100.00
57606;BME280;43430;48.204;11.556;2023-07-13T08:23:14;96295.03;;;17.52;100.00
57606;BME280;43430;48.204;11.556;2023-07-13T08:25:42;96284.59;;;17.45;100.00
57606;BME280;43430;48.204;11.556;2023-07-13T08:28:07;96282.50;;;17.52;100.00
57606;BME280;43430;48.204;11.556;2023-07-13T08:30:32;96272.00;;;17.36;100.00
57606;BME280;43430;48.204;11.556;2023-07-13T08:32:58;96277.09;;;17.42;100.00
57606;BME280;43430;48.204;11.556;2023-07-13T08:35:23;96291.50;;;17.41;100.00
57606;BME280;43430;48.204;11.556;2023-07-13T08:37:50;96300.88;;;17.49;100.00
57606;BME280;43430;48.204;11.556;2023-07-13T08:40:25;96304.75;;;17.73;100.00
57606;BME280;43430;48.204;11.556;2023-07-13T08:42:59;96289.16;;;17.97;100.00
57606;BME280;43430;48.204;11.556;2023-07-13T08:45:46;96277.75;;;18.17;100.00
57606;BME280;43430;48.204;11.556;2023-07-13T08:48:46;96287.16;;;18.50;100.00
57606;BME280;43430;48.204;11.556;2023-07-13T08:51:18;96258.59;;;18.46;100.00
57606;BME280;43430;48.204;11.556;2023-07-13T08:53:52;96252.97;;;18.42;100.00
57606;BME280;43430;48.204;11.556;2023-07-13T08:56:25;96241.78;;;18.45;100.00
57606;BME280;43430;48.204;11.556;2023-07-13T08:58:53;96248.19;;;18.49;100.00
57606;BME280;43430;48.204;11.556;2023-07-13T09:04:09;96245.50;;;18.44;100.00
57606;BME280;43430;48.204;11.556;2023-07-13T09:06:49;96242.81;;;18.29;100.00
57606;BME280;43430;48.204;11.556;2023-07-13T09:09:23;96245.50;;;18.34;100.00
57606;BME280;43430;48.204;11.556;2023-07-13T09:12:02;96230.53;;;18.28;100.00
57606;BME280;43430;48.204;11.556;2023-07-13T09:14:48;96238.03;;;18.46;100.00
57606;BME280;43430;48.204;11.556;2023-07-13T09:17:35;96245.00;;;18.63;100.00
57606;BME280;43430;48.204;11.556;2023-07-13T09:20:10;96239.69;;;18.88;100.00
57606;BME280;43430;48.204;11.556;2023-07-13T09:22:42;96246.63;;;19.10;100.00
57606;BME280;43430;48.204;11.556;2023-07-13T09:27:48;96233.53;;;18.98;100.00
57606;BME280;43430;48.204;11.556;2023-07-13T09:32:40;96227.38;;;19.18;100.00
57606;BME280;43430;48.204;11.556;2023-07-13T09:35:12;96216.72;;;18.87;100.00
57606;BME280;43430;48.204;11.556;2023-07-13T09:37:39;96227.41;;;18.77;100.00
57606;BME280;43430;48.204;11.556;2023-07-13T09:40:14;96229.25;;;18.92;100.00
57606;BME280;43430;48.204;11.556;2023-07-13T09:42:43;96234.59;;;18.92;100.00
57606;BME280;43430;48.204;11.556;2023-07-13T09:45:08;96234.84;;;19.16;100.00
57606;BME280;43430;48.204;11.556;2023-07-13T09:47:39;96221.97;;;19.38;100.00
57606;BME280;43430;48.204;11.556;2023-07-13T09:50:14;96222.97;;;19.68;100.00
57606;BME280;43430;48.204;11.556;2023-07-13T09:52:46;96216.78;;;19.78;100.00
57606;BME280;43430;48.204;11.556;2023-07-13T09:55:37;96210.69;;;19.62;100.00
57606;BME280;43430;48.204;11.556;2023-07-13T09:58:13;96218.47;;;19.48;100.00
57606;BME280;43430;48.204;11.556;2023-07-13T10:00:39;96223.88;;;19.23;100.00
57606;BME280;43430;48.204;11.556;2023-07-13T10:03:26;96215.56;;;19.34;100.00
57606;BME280;43430;48.204;11.556;2023-07-13T10:05:52;96208.50;;;19.74;100.00
57606;BME280;43430;48.204;11.556;2023-07-13T10:08:23;96209.16;;;20.05;100.00
57606;BME280;43430;48.204;11.556;2023-07-13T10:10:59;96198.50;;;20.39;100.00
57606;BME280;43430;48.204;11.556;2023-07-13T10:13:28;96194.78;;;20.41;100.00
57606;BME280;43430;48.204;11.556;2023-07-13T10:15:55;96209.94;;;20.06;100.00
57606;BME280;43430;48.204;11.556;2023-07-13T10:18:22;96207.91;;;19.87;100.00
57606;BME280;43430;48.204;11.556;2023-07-13T10:20:50;96212.13;;;20.04;100.00
57606;BME280;43430;48.204;11.556;2023-07-13T10:23:21;96208.66;;;20.03;100.00
57606;BME280;43430;48.204;11.556;2023-07-13T10:25:49;96209.72;;;20.02;100.00
57606;BME280;43430;48.204;11.556;2023-07-13T10:28:36;96211.63;;;19.91;100.00
57606;BME280;43430;48.204;11.556;2023-07-13T10:31:06;96212.25;;;20.28;100.00
57606;BME280;43430;48.204;11.556;2023-07-13T10:33:36;96209.66;;;20.57;100.00
57606;BME280;43430;48.204;11.556;2023-07-13T10:36:12;96194.47;;;20.42;100.00
57606;BME280;43430;48.204;11.556;2023-07-13T10:38:39;96181.06;;;20.81;100.00
57606;BME280;43430;48.204;11.556;2023-07-13T10:41:15;96185.34;;;20.82;100.00
57606;BME280;43430;48.204;11.556;2023-07-13T10:43:44;96197.75;;;20.73;100.00
57606;BME280;43430;48.204;11.556;2023-07-13T10:46:14;96200.38;;;20.44;100.00
57606;BME280;43430;48.204;11.556;2023-07-13T10:48:42;96199.38;;;20.30;100.00
57606;BME280;43430;48.204;11.556;2023-07-13T10:51:10;96204.16;;;20.77;100.00
57606;BME280;43430;48.204;11.556;2023-07-13T10:53:38;96195.69;;;21.23;100.00
57606;BME280;43430;48.204;11.556;2023-07-13T10:56:32;96190.25;;;21.58;100.00
57606;BME280;43430;48.204;11.556;2023-07-13T11:01:51;96190.09;;;21.68;100.00
57606;BME280;43430;48.204;11.556;2023-07-13T11:04:19;96189.84;;;21.45;100.00
57606;BME280;43430;48.204;11.556;2023-07-13T11:06:47;96197.75;;;20.73;100.00
57606;BME280;43430;48.204;11.556;2023-07-13T11:09:36;96198.59;;;20.69;100.00
57606;BME280;43430;48.204;11.556;2023-07-13T11:12:10;96197.91;;;20.87;100.00
57606;BME280;43430;48.204;11.556;2023-07-13T11:22:43;96197.06;;;21.93;100.00
57606;BME280;43430;48.204;11.556;2023-07-13T11:25:28;96193.94;;;22.04;100.00
57606;BME280;43430;48.204;11.556;2023-07-13T11:31:02;96192.75;;;21.49;100.00
57606;BME280;43430;48.204;11.556;2023-07-13T11:36:13;96185.31;;;21.89;100.00
57606;BME280;43430;48.204;11.556;2023-07-13T11:38:45;96170.28;;;22.07;100.00
57606;BME280;43430;48.204;11.556;2023-07-13T11:44:18;96175.84;;;21.72;100.00
57606;BME280;43430;48.204;11.556;2023-07-13T11:46:52;96172.19;;;20.86;100.00
57606;BME280;43430;48.204;11.556;2023-07-13T11:49:21;96163.84;;;21.17;100.00
57606;BME280;43430;48.204;11.556;2023-07-13T11:51:47;96164.16;;;21.39;100.00
57606;BME280;43430;48.204;11.556;2023-07-13T11:54:24;96155.38;;;21.58;100.00
57606;BME280;43430;48.204;11.556;2023-07-13T11:56:51;96156.19;;;21.77;100.00
57606;BME280;43430;48.204;11.556;2023-07-13T11:59:18;96156.94;;;21.83;100.00
57606;BME280;43430;48.204;11.556;2023-07-13T12:01:46;96148.69;;;21.55;100.00
57606;BME280;43430;48.204;11.556;2023-07-13T12:04:28;96153.81;;;21.75;100.00
57606;BME280;43430;48.204;11.556;2023-07-13T12:07:14;96149.16;;;22.00;100.00
57606;BME280;43430;48.204;11.556;2023-07-13T12:09:40;96146.84;;;22.12;100.00
57606;BME280;43430;48.204;11.556;2023-07-13T12:12:28;96154.47;;;22.43;100.00
57606;BME280;43430;48.204;11.556;2023-07-13T12:14:54;96146.34;;;22.29;100.00
57606;BME280;43430;48.204;11.556;2023-07-13T12:17:22;96149.31;;;22.09;100.00
57606;BME280;43430;48.204;11.556;2023-07-13T12:19:49;96141.31;;;21.85;100.00
57606;BME280;43430;48.204;11.556;2023-07-13T12:22:17;96138.72;;;22.36;100.00
57606;BME280;43430;48.204;11.556;2023-07-13T12:24:44;96139.59;;;22.32;100.00
57606;BME280;43430;48.204;11.556;2023-07-13T12:27:25;96133.53;;;22.40;100.00
57606;BME280;43430;48.204;11.556;2023-07-13T12:30:02;96126.16;;;22.50;100.00
57606;BME280;43430;48.204;11.556;2023-07-13T12:32:31;96137.16;;;22.49;100.00
57606;BME280;43430;48.204;11.556;2023-07-13T12:35:22;96135.88;;;21.90;100.00
57606;BME280;43430;48.204;11.556;2023-07-13T12:37:46;96129.53;;;22.23;100.00
57606;BME280;43430;48.204;11.556;2023-07-13T12:40:17;96128.94;;;22.59;100.00
57606;BME280;43430;48.204;11.556;2023-07-13T12:42:49;96129.75;;;22.27;95.60
57606;BME280;43430;48.204;11.556;2023-07-13T12:45:22;96118.16;;;22.45;96.06
57606;BME280;43430;48.204;11.556;2023-07-13T12:47:53;96123.56;;;22.59;99.44
57606;BME280;43430;48.204;11.556;2023-07-13T12:50:22;96122.22;;;22.75;100.00
57606;BME280;43430;48.204;11.556;2023-07-13T12:52:59;96112.66;;;22.83;100.00
57606;BME280;43430;48.204;11.556;2023-07-13T12:55:26;96111.94;;;23.10;95.97
57606;BME280;43430;48.204;11.556;2023-07-13T12:57:56;96104.97;;;22.95;96.29
57606;BME280;43430;48.204;11.556;2023-07-13T13:00:31;96110.75;;;23.03;100.00
57606;BME280;43430;48.204;11.556;2023-07-13T13:03:52;96112.75;;;22.64;93.42
57606;BME280;43430;48.204;11.556;2023-07-13T13:06:00;96114.09;;;22.48;92.55
57606;BME280;43430;48.204;11.556;2023-07-13T13:08:29;96108.00;;;22.89;93.19
57606;BME280;43430;48.204;11.556;2023-07-13T13:10:57;96102.09;;;22.73;88.55
57606;BME280;43430;48.204;11.556;2023-07-13T13:13:23;96098.75;;;22.95;92.54